sensor_id;sensor_type;location;lat;lon;timestamp;P1;durP1;ratioP1;P2;durP2;ratioP2
727;SDS011;347;48.780;9.158;2023-02-28T00:00:49;8.00;;;7.50;;
727;SDS011;347;48.780;9.158;2023-02-28T00:03:15;7.70;;;7.30;;
727;SDS011;347;48.780;9.158;2023-02-28T00:05:41;8.13;;;7.73;;
727;SDS011;347;48.780;9.158;2023-02-28T00:08:07;7.97;;;7.57;;
727;SDS011;347;48.780;9.158;2023-02-28T00:10:33;8.20;;;7.80;;
727;SDS011;347;48.780;9.158;2023-02-28T00:13:00;8.13;;;7.73;;
727;SDS011;347;48.780;9.158;2023-02-28T00:15:27;6.80;;;6.50;;
727;SDS011;347;48.780;9.158;2023-02-28T00:17:53;8.00;;;7.60;;
727;SDS011;347;48.780;9.158;2023-02-28T00:20:19;7.13;;;6.83;;
727;SDS011;347;48.780;9.158;2023-02-28T00:22:46;8.37;;;7.87;;
727;SDS011;347;48.780;9.158;2023-02-28T00:25:15;8.10;;;7.70;;
727;SDS011;347;48.780;9.158;2023-02-28T00:27:42;8.10;;;7.70;;
727;SDS011;347;48.780;9.158;2023-02-28T00:30:09;8.00;;;7.60;;
727;SDS011;347;48.780;9.158;2023-02-28T00:32:37;8.27;;;7.80;;
727;SDS011;347;48.780;9.158;2023-02-28T00:35:03;7.70;;;7.30;;
727;SDS011;347;48.780;9.158;2023-02-28T00:37:29;8.10;;;7.70;;
727;SDS011;347;48.780;9.158;2023-02-28T00:39:55;8.07;;;7.67;;
727;SDS011;347;48.780;9.158;2023-02-28T00:42:21;8.00;;;7.60;;
727;SDS011;347;48.780;9.158;2023-02-28T00:44:47;8.60;;;8.20;;
727;SDS011;347;48.780;9.158;2023-02-28T00:47:12;7.63;;;7.33;;
727;SDS011;347;48.780;9.158;2023-02-28T00:49:38;8.47;;;7.97;;
727;SDS011;347;48.780;9.158;2023-02-28T00:52:03;8.00;;;7.70;;
727;SDS011;347;48.780;9.158;2023-02-28T00:54:29;8.30;;;7.93;;
727;SDS011;347;48.780;9.158;2023-02-28T00:56:55;8.43;;;8.03;;
727;SDS011;347;48.780;9.158;2023-02-28T00:59:21;9.07;;;8.57;;
727;SDS011;347;48.780;9.158;2023-02-28T01:01:46;8.20;;;7.87;;
727;SDS011;347;48.780;9.158;2023-02-28T01:04:12;8.63;;;8.13;;
727;SDS011;347;48.780;9.158;2023-02-28T01:06:39;8.83;;;8.37;;
727;SDS011;347;48.780;9.158;2023-02-28T01:09:05;8.40;;;8.00;;
727;SDS011;347;48.780;9.158;2023-02-28T01:11:32;7.63;;;7.30;;
727;SDS011;347;48.780;9.158;2023-02-28T01:13:58;7.63;;;7.33;;
727;SDS011;347;48.780;9.158;2023-02-28T01:16:24;8.07;;;7.67;;
727;SDS011;347;48.780;9.158;2023-02-28T01:18:50;8.27;;;7.87;;
727;SDS011;347;48.780;9.158;2023-02-28T01:21:16;9.93;;;9.43;;
727;SDS011;347;48.780;9.158;2023-02-28T01:23:43;8.83;;;8.43;;
727;SDS011;347;48.780;9.158;2023-02-28T01:26:10;9.10;;;8.70;;
727;SDS011;347;48.780;9.158;2023-02-28T01:28:39;8.40;;;8.00;;
727;SDS011;347;48.780;9.158;2023-02-28T01:31:05;8.30;;;7.90;;
727;SDS011;347;48.780;9.158;2023-02-28T01:33:31;8.87;;;8.27;;
727;SDS011;347;48.780;9.158;2023-02-28T01:35:58;9.97;;;9.40;;
727;SDS011;347;48.780;9.158;2023-02-28T01:38:44;9.10;;;8.60;;
727;SDS011;347;48.780;9.158;2023-02-28T01:41:26;8.63;;;8.07;;
727;SDS011;347;48.780;9.158;2023-02-28T01:43:57;9.17;;;8.67;;
727;SDS011;347;48.780;9.158;2023-02-28T01:46:28;8.83;;;8.23;;
727;SDS011;347;48.780;9.158;2023-02-28T01:48:58;8.50;;;8.10;;
727;SDS011;347;48.780;9.158;2023-02-28T01:51:45;8.57;;;8.13;;
727;SDS011;347;48.780;9.158;2023-02-28T01:54:18;9.77;;;9.30;;
727;SDS011;347;48.780;9.158;2023-02-28T01:56:57;9.13;;;8.60;;
727;SDS011;347;48.780;9.158;2023-02-28T01:59:31;9.30;;;8.90;;
727;SDS011;347;48.780;9.158;2023-02-28T02:02:02;9.20;;;8.70;;
727;SDS011;347;48.780;9.158;2023-02-28T02:04:31;9.73;;;9.30;;
727;SDS011;347;48.780;9.158;2023-02-28T02:07:02;9.40;;;8.90;;
727;SDS011;347;48.780;9.158;2023-02-28T02:09:29;8.87;;;8.40;;
727;SDS011;347;48.780;9.158;2023-02-28T02:11:55;9.20;;;8.70;;
727;SDS011;347;48.780;9.158;2023-02-28T02:14:33;9.00;;;8.60;;
727;SDS011;347;48.780;9.158;2023-02-28T02:17:23;9.30;;;8.63;;
727;SDS011;347;48.780;9.158;2023-02-28T02:31:01;10.97;;;10.40;;
727;SDS011;347;48.780;9.158;2023-02-28T02:36:42;9.73;;;9.23;;
727;SDS011;347;48.780;9.158;2023-02-28T02:42:01;11.03;;;10.33;;
727;SDS011;347;48.780;9.158;2023-02-28T02:44:42;10.27;;;9.47;;
727;SDS011;347;48.780;9.158;2023-02-28T02:47:17;10.00;;;9.50;;
727;SDS011;347;48.780;9.158;2023-02-28T02:49:46;10.63;;;10.07;;
727;SDS011;347;48.780;9.158;2023-02-28T02:52:16;10.47;;;9.87;;
727;SDS011;347;48.780;9.158;2023-02-28T02:54:46;8.70;;;8.30;;
727;SDS011;347;48.780;9.158;2023-02-28T02:57:17;9.87;;;9.47;;
727;SDS011;347;48.780;9.158;2023-02-28T02:59:48;9.67;;;9.07;;
727;SDS011;347;48.780;9.158;2023-02-28T03:02:15;10.17;;;9.57;;
727;SDS011;347;48.780;9.158;2023-02-28T03:04:43;10.17;;;9.67;;
727;SDS011;347;48.780;9.158;2023-02-28T03:07:13;9.90;;;9.50;;
727;SDS011;347;48.780;9.158;2023-02-28T03:09:39;11.33;;;10.57;;
727;SDS011;347;48.780;9.158;2023-02-28T03:12:06;10.77;;;10.20;;
727;SDS011;347;48.780;9.158;2023-02-28T03:17:26;10.83;;;10.23;;
727;SDS011;347;48.780;9.158;2023-02-28T03:20:11;10.90;;;10.30;;
727;SDS011;347;48.780;9.158;2023-02-28T03:25:56;10.87;;;10.37;;
727;SDS011;347;48.780;9.158;2023-02-28T03:28:32;9.70;;;9.20;;
727;SDS011;347;48.780;9.158;2023-02-28T03:33:40;10.20;;;9.70;;
727;SDS011;347;48.780;9.158;2023-02-28T03:36:19;11.00;;;10.50;;
727;SDS011;347;48.780;9.158;2023-02-28T03:42:11;11.37;;;10.77;;
727;SDS011;347;48.780;9.158;2023-02-28T03:44:25;11.50;;;10.90;;
727;SDS011;347;48.780;9.158;2023-02-28T03:47:10;12.43;;;11.83;;
727;SDS011;347;48.780;9.158;2023-02-28T03:52:34;10.10;;;9.70;;
727;SDS011;347;48.780;9.158;2023-02-28T03:55:07;11.80;;;11.20;;
727;SDS011;347;48.780;9.158;2023-02-28T04:00:20;12.00;;;11.50;;
727;SDS011;347;48.780;9.158;2023-02-28T04:02:50;12.20;;;11.60;;
727;SDS011;347;48.780;9.158;2023-02-28T04:05:18;10.80;;;10.20;;
727;SDS011;347;48.780;9.158;2023-02-28T04:07:47;12.63;;;11.73;;
727;SDS011;347;48.780;9.158;2023-02-28T04:10:13;11.43;;;10.83;;
727;SDS011;347;48.780;9.158;2023-02-28T04:12:40;11.90;;;11.20;;
727;SDS011;347;48.780;9.158;2023-02-28T04:15:06;11.20;;;10.60;;
727;SDS011;347;48.780;9.158;2023-02-28T04:17:32;10.40;;;9.90;;
727;SDS011;347;48.780;9.158;2023-02-28T04:19:58;11.50;;;10.90;;
727;SDS011;347;48.780;9.158;2023-02-28T04:22:23;11.43;;;10.60;;
727;SDS011;347;48.780;9.158;2023-02-28T04:24:52;11.77;;;11.07;;
727;SDS011;347;48.780;9.158;2023-02-28T04:27:19;11.13;;;10.63;;
727;SDS011;347;48.780;9.158;2023-02-28T04:29:45;11.90;;;11.20;;
727;SDS011;347;48.780;9.158;2023-02-28T04:32:11;11.43;;;10.73;;
727;SDS011;347;48.780;9.158;2023-02-28T04:34:37;11.27;;;10.67;;
727;SDS011;347;48.780;9.158;2023-02-28T04:37:03;10.80;;;10.30;;
727;SDS011;347;48.780;9.158;2023-02-28T04:39:29;11.40;;;10.83;;
727;SDS011;347;48.780;9.158;2023-02-28T04:41:55;11.13;;;10.60;;
727;SDS011;347;48.780;9.158;2023-02-28T04:44:21;11.70;;;11.00;;
727;SDS011;347;48.780;9.158;2023-02-28T04:46:48;12.00;;;11.40;;
727;SDS011;347;48.780;9.158;2023-02-28T04:49:14;13.17;;;12.37;;
727;SDS011;347;48.780;9.158;2023-02-28T04:51:40;10.97;;;10.37;;
727;SDS011;347;48.780;9.158;2023-02-28T04:54:06;11.30;;;10.73;;
727;SDS011;347;48.780;9.158;2023-02-28T04:56:32;11.43;;;10.93;;
727;SDS011;347;48.780;9.158;2023-02-28T04:58:58;11.77;;;11.20;;
727;SDS011;347;48.780;9.158;2023-02-28T05:01:31;11.37;;;10.80;;
727;SDS011;347;48.780;9.158;2023-02-28T05:03:59;11.67;;;11.07;;
727;SDS011;347;48.780;9.158;2023-02-28T05:06:27;10.60;;;10.10;;
727;SDS011;347;48.780;9.158;2023-02-28T05:08:55;12.30;;;11.50;;
727;SDS011;347;48.780;9.158;2023-02-28T05:11:28;11.90;;;11.20;;
727;SDS011;347;48.780;9.158;2023-02-28T05:13:59;13.60;;;12.80;;
727;SDS011;347;48.780;9.158;2023-02-28T05:16:29;12.17;;;11.53;;
727;SDS011;347;48.780;9.158;2023-02-28T05:18:56;12.47;;;11.70;;
727;SDS011;347;48.780;9.158;2023-02-28T05:21:41;12.10;;;11.40;;
727;SDS011;347;48.780;9.158;2023-02-28T05:24:14;12.20;;;11.60;;
727;SDS011;347;48.780;9.158;2023-02-28T05:26:40;12.40;;;11.80;;
727;SDS011;347;48.780;9.158;2023-02-28T05:29:07;12.30;;;11.60;;
727;SDS011;347;48.780;9.158;2023-02-28T05:31:33;12.53;;;11.83;;
727;SDS011;347;48.780;9.158;2023-02-28T05:33:59;12.47;;;11.83;;
727;SDS011;347;48.780;9.158;2023-02-28T05:36:25;12.43;;;11.73;;
727;SDS011;347;48.780;9.158;2023-02-28T05:38:51;12.80;;;11.87;;
727;SDS011;347;48.780;9.158;2023-02-28T05:41:17;12.20;;;11.50;;
727;SDS011;347;48.780;9.158;2023-02-28T05:43:44;12.97;;;12.20;;
727;SDS011;347;48.780;9.158;2023-02-28T05:46:10;11.87;;;11.27;;
727;SDS011;347;48.780;9.158;2023-02-28T05:48:37;12.10;;;11.40;;
727;SDS011;347;48.780;9.158;2023-02-28T05:51:04;12.13;;;11.43;;
727;SDS011;347;48.780;9.158;2023-02-28T05:53:31;12.80;;;12.10;;
727;SDS011;347;48.780;9.158;2023-02-28T05:55:57;12.80;;;12.00;;
727;SDS011;347;48.780;9.158;2023-02-28T05:58:23;12.43;;;11.53;;
727;SDS011;347;48.780;9.158;2023-02-28T06:00:56;13.87;;;12.97;;
727;SDS011;347;48.780;9.158;2023-02-28T06:03:22;12.50;;;11.87;;
727;SDS011;347;48.780;9.158;2023-02-28T06:05:48;13.20;;;12.40;;
727;SDS011;347;48.780;9.158;2023-02-28T06:08:15;13.30;;;12.50;;
727;SDS011;347;48.780;9.158;2023-02-28T06:10:41;12.90;;;12.10;;
727;SDS011;347;48.780;9.158;2023-02-28T06:13:06;13.90;;;13.10;;
727;SDS011;347;48.780;9.158;2023-02-28T06:15:32;11.97;;;11.37;;
727;SDS011;347;48.780;9.158;2023-02-28T06:17:58;13.23;;;12.43;;
727;SDS011;347;48.780;9.158;2023-02-28T06:20:25;13.17;;;12.30;;
727;SDS011;347;48.780;9.158;2023-02-28T06:22:58;12.03;;;11.33;;
727;SDS011;347;48.780;9.158;2023-02-28T06:25:24;13.17;;;12.47;;
727;SDS011;347;48.780;9.158;2023-02-28T06:27:53;14.13;;;13.33;;
727;SDS011;347;48.780;9.158;2023-02-28T06:30:19;13.33;;;12.50;;
727;SDS011;347;48.780;9.158;2023-02-28T06:32:50;13.30;;;12.30;;
727;SDS011;347;48.780;9.158;2023-02-28T06:35:15;12.30;;;11.60;;
727;SDS011;347;48.780;9.158;2023-02-28T06:37:41;14.07;;;13.00;;
727;SDS011;347;48.780;9.158;2023-02-28T06:40:09;13.10;;;12.07;;
727;SDS011;347;48.780;9.158;2023-02-28T06:42:35;14.00;;;13.10;;
727;SDS011;347;48.780;9.158;2023-02-28T06:45:00;13.70;;;12.70;;
727;SDS011;347;48.780;9.158;2023-02-28T06:47:28;13.47;;;12.57;;
727;SDS011;347;48.780;9.158;2023-02-28T06:49:55;12.30;;;11.50;;
727;SDS011;347;48.780;9.158;2023-02-28T06:52:21;13.10;;;12.40;;
727;SDS011;347;48.780;9.158;2023-02-28T06:54:47;13.20;;;12.60;;
727;SDS011;347;48.780;9.158;2023-02-28T06:57:24;12.70;;;11.80;;
727;SDS011;347;48.780;9.158;2023-02-28T06:59:55;13.67;;;12.80;;
727;SDS011;347;48.780;9.158;2023-02-28T07:02:22;13.20;;;12.50;;
727;SDS011;347;48.780;9.158;2023-02-28T07:04:48;13.20;;;12.40;;
727;SDS011;347;48.780;9.158;2023-02-28T07:07:14;12.73;;;12.03;;
727;SDS011;347;48.780;9.158;2023-02-28T07:09:39;13.50;;;12.80;;
727;SDS011;347;48.780;9.158;2023-02-28T07:12:05;13.10;;;12.30;;
727;SDS011;347;48.780;9.158;2023-02-28T07:14:31;14.50;;;13.70;;
727;SDS011;347;48.780;9.158;2023-02-28T07:16:56;12.60;;;11.80;;
727;SDS011;347;48.780;9.158;2023-02-28T07:19:22;13.20;;;12.50;;
727;SDS011;347;48.780;9.158;2023-02-28T07:21:48;13.97;;;13.00;;
727;SDS011;347;48.780;9.158;2023-02-28T07:24:14;14.37;;;13.30;;
727;SDS011;347;48.780;9.158;2023-02-28T07:26:41;14.30;;;13.50;;
727;SDS011;347;48.780;9.158;2023-02-28T07:29:06;14.50;;;13.40;;
727;SDS011;347;48.780;9.158;2023-02-28T07:31:32;15.10;;;14.00;;
727;SDS011;347;48.780;9.158;2023-02-28T07:33:58;14.33;;;13.43;;
727;SDS011;347;48.780;9.158;2023-02-28T07:36:23;17.10;;;15.90;;
727;SDS011;347;48.780;9.158;2023-02-28T07:38:49;14.90;;;13.63;;
727;SDS011;347;48.780;9.158;2023-02-28T07:41:16;15.17;;;14.20;;
727;SDS011;347;48.780;9.158;2023-02-28T07:43:43;13.97;;;13.17;;
727;SDS011;347;48.780;9.158;2023-02-28T07:46:10;14.57;;;13.57;;
727;SDS011;347;48.780;9.158;2023-02-28T07:48:40;14.23;;;13.20;;
727;SDS011;347;48.780;9.158;2023-02-28T07:51:05;14.30;;;13.43;;
727;SDS011;347;48.780;9.158;2023-02-28T07:53:31;14.27;;;13.47;;
727;SDS011;347;48.780;9.158;2023-02-28T07:55:57;13.97;;;13.07;;
727;SDS011;347;48.780;9.158;2023-02-28T07:58:24;14.70;;;13.80;;
727;SDS011;347;48.780;9.158;2023-02-28T08:00:51;15.20;;;14.20;;
727;SDS011;347;48.780;9.158;2023-02-28T08:03:18;15.77;;;14.77;;
727;SDS011;347;48.780;9.158;2023-02-28T08:05:44;15.43;;;14.40;;
727;SDS011;347;48.780;9.158;2023-02-28T08:08:10;17.60;;;16.47;;
727;SDS011;347;48.780;9.158;2023-02-28T08:10:36;15.27;;;14.07;;
727;SDS011;347;48.780;9.158;2023-02-28T08:13:01;16.00;;;14.80;;
727;SDS011;347;48.780;9.158;2023-02-28T08:15:27;18.43;;;16.83;;
727;SDS011;347;48.780;9.158;2023-02-28T08:17:53;16.00;;;15.00;;
727;SDS011;347;48.780;9.158;2023-02-28T08:20:21;16.87;;;15.77;;
727;SDS011;347;48.780;9.158;2023-02-28T08:22:47;18.57;;;17.37;;
727;SDS011;347;48.780;9.158;2023-02-28T08:25:12;15.23;;;14.30;;
727;SDS011;347;48.780;9.158;2023-02-28T08:27:38;16.63;;;15.60;;
727;SDS011;347;48.780;9.158;2023-02-28T08:30:04;31.50;;;28.50;;
727;SDS011;347;48.780;9.158;2023-02-28T08:32:31;19.03;;;17.67;;
727;SDS011;347;48.780;9.158;2023-02-28T08:34:58;19.00;;;17.50;;
727;SDS011;347;48.780;9.158;2023-02-28T08:37:23;17.37;;;16.27;;
727;SDS011;347;48.780;9.158;2023-02-28T08:39:49;16.90;;;15.90;;
727;SDS011;347;48.780;9.158;2023-02-28T08:42:15;16.70;;;15.50;;
727;SDS011;347;48.780;9.158;2023-02-28T08:44:40;16.20;;;15.13;;
727;SDS011;347;48.780;9.158;2023-02-28T08:47:06;15.37;;;14.27;;
727;SDS011;347;48.780;9.158;2023-02-28T08:49:32;18.17;;;16.60;;
727;SDS011;347;48.780;9.158;2023-02-28T08:51:57;16.20;;;15.10;;
727;SDS011;347;48.780;9.158;2023-02-28T08:54:23;16.57;;;15.57;;
727;SDS011;347;48.780;9.158;2023-02-28T08:56:49;16.43;;;15.30;;
727;SDS011;347;48.780;9.158;2023-02-28T08:59:15;17.37;;;16.27;;
727;SDS011;347;48.780;9.158;2023-02-28T09:01:41;15.97;;;14.87;;
727;SDS011;347;48.780;9.158;2023-02-28T09:04:08;15.73;;;14.70;;
727;SDS011;347;48.780;9.158;2023-02-28T09:06:35;15.53;;;14.40;;
727;SDS011;347;48.780;9.158;2023-02-28T09:09:02;15.97;;;14.97;;
727;SDS011;347;48.780;9.158;2023-02-28T09:11:30;16.37;;;15.30;;
727;SDS011;347;48.780;9.158;2023-02-28T09:13:57;16.00;;;14.80;;
727;SDS011;347;48.780;9.158;2023-02-28T09:16:24;15.90;;;14.97;;
727;SDS011;347;48.780;9.158;2023-02-28T09:18:49;14.97;;;14.07;;
727;SDS011;347;48.780;9.158;2023-02-28T09:21:15;16.23;;;15.13;;
727;SDS011;347;48.780;9.158;2023-02-28T09:23:43;14.83;;;14.00;;
727;SDS011;347;48.780;9.158;2023-02-28T09:26:16;16.73;;;15.63;;
727;SDS011;347;48.780;9.158;2023-02-28T09:28:47;17.40;;;16.03;;
727;SDS011;347;48.780;9.158;2023-02-28T09:31:14;16.50;;;15.50;;
727;SDS011;347;48.780;9.158;2023-02-28T09:33:45;16.67;;;15.30;;
727;SDS011;347;48.780;9.158;2023-02-28T09:36:12;17.70;;;16.40;;
727;SDS011;347;48.780;9.158;2023-02-28T09:38:37;16.20;;;15.10;;
727;SDS011;347;48.780;9.158;2023-02-28T09:41:08;17.70;;;16.30;;
727;SDS011;347;48.780;9.158;2023-02-28T09:43:58;15.67;;;14.67;;
727;SDS011;347;48.780;9.158;2023-02-28T09:49:05;16.30;;;15.20;;
727;SDS011;347;48.780;9.158;2023-02-28T09:51:40;17.47;;;16.27;;
727;SDS011;347;48.780;9.158;2023-02-28T09:54:18;16.77;;;15.63;;
727;SDS011;347;48.780;9.158;2023-02-28T09:56:51;16.17;;;15.17;;
727;SDS011;347;48.780;9.158;2023-02-28T09:59:48;16.87;;;15.77;;
727;SDS011;347;48.780;9.158;2023-02-28T10:02:25;16.73;;;15.70;;
727;SDS011;347;48.780;9.158;2023-02-28T10:05:21;16.53;;;15.43;;
727;SDS011;347;48.780;9.158;2023-02-28T10:10:43;16.57;;;15.10;;
727;SDS011;347;48.780;9.158;2023-02-28T10:13:33;16.83;;;15.60;;
727;SDS011;347;48.780;9.158;2023-02-28T10:16:11;16.47;;;15.30;;
727;SDS011;347;48.780;9.158;2023-02-28T10:18:49;15.90;;;14.90;;
727;SDS011;347;48.780;9.158;2023-02-28T10:21:27;17.17;;;15.97;;
727;SDS011;347;48.780;9.158;2023-02-28T10:29:42;17.40;;;16.23;;
727;SDS011;347;48.780;9.158;2023-02-28T10:32:09;17.50;;;16.30;;
727;SDS011;347;48.780;9.158;2023-02-28T10:34:38;16.80;;;15.70;;
727;SDS011;347;48.780;9.158;2023-02-28T10:37:03;17.73;;;16.53;;
727;SDS011;347;48.780;9.158;2023-02-28T10:39:36;18.10;;;16.77;;
727;SDS011;347;48.780;9.158;2023-02-28T10:42:04;17.13;;;16.03;;
727;SDS011;347;48.780;9.158;2023-02-28T10:44:43;17.03;;;15.93;;
727;SDS011;347;48.780;9.158;2023-02-28T10:47:13;17.10;;;16.00;;
727;SDS011;347;48.780;9.158;2023-02-28T10:49:45;17.50;;;16.20;;
727;SDS011;347;48.780;9.158;2023-02-28T10:52:13;17.00;;;15.77;;
727;SDS011;347;48.780;9.158;2023-02-28T10:55:13;18.40;;;17.00;;
727;SDS011;347;48.780;9.158;2023-02-28T10:57:41;16.00;;;15.00;;
727;SDS011;347;48.780;9.158;2023-02-28T11:00:23;17.10;;;16.00;;
727;SDS011;347;48.780;9.158;2023-02-28T11:02:50;17.73;;;16.53;;
727;SDS011;347;48.780;9.158;2023-02-28T11:07:55;17.10;;;15.90;;
727;SDS011;347;48.780;9.158;2023-02-28T11:10:25;17.07;;;16.03;;
727;SDS011;347;48.780;9.158;2023-02-28T11:12:55;15.93;;;14.90;;
727;SDS011;347;48.780;9.158;2023-02-28T11:15:23;17.50;;;16.23;;
727;SDS011;347;48.780;9.158;2023-02-28T11:20:51;17.63;;;16.50;;
727;SDS011;347;48.780;9.158;2023-02-28T11:23:19;17.20;;;16.00;;
727;SDS011;347;48.780;9.158;2023-02-28T11:25:50;18.40;;;17.00;;
727;SDS011;347;48.780;9.158;2023-02-28T11:31:00;17.43;;;16.43;;
727;SDS011;347;48.780;9.158;2023-02-28T11:33:27;17.73;;;16.43;;
727;SDS011;347;48.780;9.158;2023-02-28T11:36:28;16.60;;;15.50;;
727;SDS011;347;48.780;9.158;2023-02-28T11:38:59;16.27;;;15.27;;
727;SDS011;347;48.780;9.158;2023-02-28T11:46:49;17.47;;;16.30;;
727;SDS011;347;48.780;9.158;2023-02-28T11:53:10;16.70;;;15.60;;
727;SDS011;347;48.780;9.158;2023-02-28T11:55:17;17.80;;;16.73;;
727;SDS011;347;48.780;9.158;2023-02-28T11:57:56;21.50;;;19.80;;
727;SDS011;347;48.780;9.158;2023-02-28T12:06:13;17.77;;;16.47;;
727;SDS011;347;48.780;9.158;2023-02-28T12:19:31;17.40;;;16.30;;
727;SDS011;347;48.780;9.158;2023-02-28T12:22:12;18.70;;;17.30;;
727;SDS011;347;48.780;9.158;2023-02-28T12:27:41;16.37;;;15.23;;
727;SDS011;347;48.780;9.158;2023-02-28T12:32:48;18.63;;;17.43;;
727;SDS011;347;48.780;9.158;2023-02-28T12:38:21;18.33;;;17.23;;
727;SDS011;347;48.780;9.158;2023-02-28T12:40:52;16.23;;;15.30;;
727;SDS011;347;48.780;9.158;2023-02-28T12:43:22;16.50;;;15.53;;
727;SDS011;347;48.780;9.158;2023-02-28T12:45:53;16.10;;;15.10;;
727;SDS011;347;48.780;9.158;2023-02-28T12:48:31;15.17;;;14.27;;
727;SDS011;347;48.780;9.158;2023-02-28T12:51:04;18.30;;;17.00;;
727;SDS011;347;48.780;9.158;2023-02-28T12:53:38;17.20;;;16.20;;
727;SDS011;347;48.780;9.158;2023-02-28T12:59:01;19.70;;;18.20;;
727;SDS011;347;48.780;9.158;2023-02-28T13:04:14;16.93;;;15.80;;
727;SDS011;347;48.780;9.158;2023-02-28T13:09:27;16.30;;;15.30;;
727;SDS011;347;48.780;9.158;2023-02-28T13:11:55;16.37;;;15.27;;
727;SDS011;347;48.780;9.158;2023-02-28T13:19:21;18.00;;;16.90;;
727;SDS011;347;48.780;9.158;2023-02-28T13:21:48;17.63;;;16.43;;
727;SDS011;347;48.780;9.158;2023-02-28T13:29:38;15.60;;;14.60;;
727;SDS011;347;48.780;9.158;2023-02-28T13:39:50;17.40;;;16.30;;
727;SDS011;347;48.780;9.158;2023-02-28T13:42:36;16.60;;;15.30;;
727;SDS011;347;48.780;9.158;2023-02-28T13:47:41;16.57;;;15.40;;
727;SDS011;347;48.780;9.158;2023-02-28T14:07:09;15.20;;;14.20;;
727;SDS011;347;48.780;9.158;2023-02-28T14:10:18;15.70;;;14.70;;
727;SDS011;347;48.780;9.158;2023-02-28T14:16:13;15.90;;;14.80;;
727;SDS011;347;48.780;9.158;2023-02-28T14:18:41;16.07;;;14.97;;
727;SDS011;347;48.780;9.158;2023-02-28T14:32:49;16.10;;;15.00;;
727;SDS011;347;48.780;9.158;2023-02-28T14:37:51;16.33;;;15.30;;
727;SDS011;347;48.780;9.158;2023-02-28T14:40:32;16.70;;;15.50;;
727;SDS011;347;48.780;9.158;2023-02-28T14:43:00;15.03;;;14.13;;
727;SDS011;347;48.780;9.158;2023-02-28T14:45:31;14.33;;;13.43;;
727;SDS011;347;48.780;9.158;2023-02-28T14:47:59;14.90;;;13.90;;
727;SDS011;347;48.780;9.158;2023-02-28T14:50:29;16.20;;;15.20;;
727;SDS011;347;48.780;9.158;2023-02-28T14:52:57;17.50;;;15.83;;
727;SDS011;347;48.780;9.158;2023-02-28T14:55:46;16.43;;;15.37;;
727;SDS011;347;48.780;9.158;2023-02-28T14:58:22;15.70;;;14.70;;
727;SDS011;347;48.780;9.158;2023-02-28T15:00:54;15.70;;;14.57;;
727;SDS011;347;48.780;9.158;2023-02-28T15:03:28;15.50;;;14.50;;
727;SDS011;347;48.780;9.158;2023-02-28T15:05:58;15.43;;;14.53;;
727;SDS011;347;48.780;9.158;2023-02-28T15:08:29;16.20;;;15.20;;
727;SDS011;347;48.780;9.158;2023-02-28T15:11:01;16.03;;;15.00;;
727;SDS011;347;48.780;9.158;2023-02-28T15:13:36;17.13;;;16.10;;
727;SDS011;347;48.780;9.158;2023-02-28T15:16:18;16.63;;;15.60;;
727;SDS011;347;48.780;9.158;2023-02-28T15:21:31;16.30;;;15.30;;
727;SDS011;347;48.780;9.158;2023-02-28T15:26:32;17.07;;;15.90;;
727;SDS011;347;48.780;9.158;2023-02-28T15:29:04;16.50;;;15.30;;
727;SDS011;347;48.780;9.158;2023-02-28T15:31:32;17.47;;;15.97;;
727;SDS011;347;48.780;9.158;2023-02-28T15:34:05;17.70;;;16.30;;
727;SDS011;347;48.780;9.158;2023-02-28T15:36:33;16.90;;;15.70;;
727;SDS011;347;48.780;9.158;2023-02-28T15:39:02;17.50;;;16.30;;
727;SDS011;347;48.780;9.158;2023-02-28T15:41:43;16.27;;;15.07;;
727;SDS011;347;48.780;9.158;2023-02-28T15:46:57;16.60;;;15.50;;
727;SDS011;347;48.780;9.158;2023-02-28T15:49:23;16.60;;;15.70;;
727;SDS011;347;48.780;9.158;2023-02-28T15:51:50;17.13;;;16.03;;
727;SDS011;347;48.780;9.158;2023-02-28T15:54:38;16.07;;;15.07;;
727;SDS011;347;48.780;9.158;2023-02-28T15:57:06;16.53;;;15.53;;
727;SDS011;347;48.780;9.158;2023-02-28T15:59:38;17.13;;;16.13;;
727;SDS011;347;48.780;9.158;2023-02-28T16:07:35;17.90;;;16.47;;
727;SDS011;347;48.780;9.158;2023-02-28T16:10:02;16.87;;;15.87;;
727;SDS011;347;48.780;9.158;2023-02-28T16:12:29;16.80;;;15.50;;
727;SDS011;347;48.780;9.158;2023-02-28T16:14:57;16.80;;;15.70;;
727;SDS011;347;48.780;9.158;2023-02-28T16:17:25;17.43;;;16.10;;
727;SDS011;347;48.780;9.158;2023-02-28T16:19:53;16.97;;;15.87;;
727;SDS011;347;48.780;9.158;2023-02-28T16:22:19;16.73;;;15.40;;
727;SDS011;347;48.780;9.158;2023-02-28T16:24:45;16.60;;;15.50;;
727;SDS011;347;48.780;9.158;2023-02-28T16:27:15;16.80;;;15.73;;
727;SDS011;347;48.780;9.158;2023-02-28T16:29:44;17.30;;;16.17;;
727;SDS011;347;48.780;9.158;2023-02-28T16:32:12;17.87;;;16.70;;
727;SDS011;347;48.780;9.158;2023-02-28T16:34:40;17.73;;;16.53;;
727;SDS011;347;48.780;9.158;2023-02-28T16:37:14;15.97;;;15.07;;
727;SDS011;347;48.780;9.158;2023-02-28T16:39:42;17.83;;;16.63;;
727;SDS011;347;48.780;9.158;2023-02-28T16:42:18;16.87;;;15.77;;
727;SDS011;347;48.780;9.158;2023-02-28T16:44:48;15.87;;;14.90;;
727;SDS011;347;48.780;9.158;2023-02-28T16:47:14;16.60;;;15.40;;
727;SDS011;347;48.780;9.158;2023-02-28T16:49:40;16.70;;;15.67;;
727;SDS011;347;48.780;9.158;2023-02-28T16:52:07;16.60;;;15.50;;
727;SDS011;347;48.780;9.158;2023-02-28T16:54:33;17.00;;;15.90;;
727;SDS011;347;48.780;9.158;2023-02-28T16:56:59;16.67;;;15.67;;
727;SDS011;347;48.780;9.158;2023-02-28T16:59:25;17.57;;;16.40;;
727;SDS011;347;48.780;9.158;2023-02-28T17:01:52;17.27;;;16.17;;
727;SDS011;347;48.780;9.158;2023-02-28T17:04:19;16.17;;;15.10;;
727;SDS011;347;48.780;9.158;2023-02-28T17:06:45;16.77;;;15.77;;
727;SDS011;347;48.780;9.158;2023-02-28T17:09:16;16.63;;;15.50;;
727;SDS011;347;48.780;9.158;2023-02-28T17:11:43;16.07;;;15.07;;
727;SDS011;347;48.780;9.158;2023-02-28T17:14:09;17.23;;;15.90;;
727;SDS011;347;48.780;9.158;2023-02-28T17:16:35;16.27;;;15.20;;
727;SDS011;347;48.780;9.158;2023-02-28T17:19:05;17.03;;;15.83;;
727;SDS011;347;48.780;9.158;2023-02-28T17:21:31;17.53;;;16.43;;
727;SDS011;347;48.780;9.158;2023-02-28T17:23:58;17.47;;;16.37;;
727;SDS011;347;48.780;9.158;2023-02-28T17:26:24;16.63;;;15.63;;
727;SDS011;347;48.780;9.158;2023-02-28T17:28:51;16.10;;;15.10;;
727;SDS011;347;48.780;9.158;2023-02-28T17:31:17;16.73;;;15.73;;
727;SDS011;347;48.780;9.158;2023-02-28T17:33:43;17.37;;;16.17;;
727;SDS011;347;48.780;9.158;2023-02-28T17:36:13;16.80;;;15.70;;
727;SDS011;347;48.780;9.158;2023-02-28T17:38:41;16.93;;;15.80;;
727;SDS011;347;48.780;9.158;2023-02-28T17:41:08;17.33;;;16.03;;
727;SDS011;347;48.780;9.158;2023-02-28T17:43:35;17.37;;;16.17;;
727;SDS011;347;48.780;9.158;2023-02-28T17:46:01;18.50;;;17.20;;
727;SDS011;347;48.780;9.158;2023-02-28T17:48:26;17.23;;;16.03;;
727;SDS011;347;48.780;9.158;2023-02-28T17:50:52;17.90;;;16.70;;
727;SDS011;347;48.780;9.158;2023-02-28T17:53:18;18.90;;;17.60;;
727;SDS011;347;48.780;9.158;2023-02-28T17:55:47;17.93;;;16.77;;
727;SDS011;347;48.780;9.158;2023-02-28T17:58:16;18.13;;;16.93;;
727;SDS011;347;48.780;9.158;2023-02-28T18:00:43;19.27;;;17.87;;
727;SDS011;347;48.780;9.158;2023-02-28T18:03:09;18.00;;;16.80;;
727;SDS011;347;48.780;9.158;2023-02-28T18:05:35;18.50;;;17.10;;
727;SDS011;347;48.780;9.158;2023-02-28T18:08:01;19.83;;;18.23;;
727;SDS011;347;48.780;9.158;2023-02-28T18:10:27;19.63;;;18.13;;
727;SDS011;347;48.780;9.158;2023-02-28T18:12:53;18.23;;;16.93;;
727;SDS011;347;48.780;9.158;2023-02-28T18:15:20;18.27;;;16.93;;
727;SDS011;347;48.780;9.158;2023-02-28T18:17:47;19.27;;;17.90;;